createdAt,value
2018-10-20T00:01:54.750Z,9.60
2018-10-20T00:04:22.967Z,9.60
2018-10-20T00:06:51.168Z,9.50
2018-10-20T00:09:19.383Z,9.40
2018-10-20T00:11:47.598Z,9.40
2018-10-20T00:14:15.890Z,9.40
2018-10-20T00:16:44.099Z,9.40
2018-10-20T00:19:12.376Z,9.40
2018-10-20T00:21:40.522Z,9.40
2018-10-20T00:24:08.730Z,9.50
2018-10-20T00:26:36.933Z,9.50
2018-10-20T00:29:05.312Z,9.40
2018-10-20T00:31:33.590Z,9.40
2018-10-20T00:34:01.845Z,9.50
2018-10-20T00:36:29.979Z,9.50
2018-10-20T00:38:58.212Z,9.40
2018-10-20T00:41:26.403Z,9.40
2018-10-20T00:43:54.667Z,9.40
2018-10-20T00:46:22.860Z,9.30
2018-10-20T00:48:51.094Z,9.20
2018-10-20T00:51:19.347Z,9.10
2018-10-20T00:53:47.578Z,9.00
2018-10-20T00:56:15.791Z,9.00
2018-10-20T00:58:44.024Z,9.10
2018-10-20T01:01:12.418Z,9.10
2018-10-20T01:03:40.555Z,9.00
2018-10-20T01:06:08.786Z,8.90
2018-10-20T01:08:37.019Z,8.90
2018-10-20T01:11:05.250Z,8.80
2018-10-20T01:13:33.491Z,8.90
2018-10-20T01:16:01.739Z,8.90
2018-10-20T01:18:29.963Z,9.00
2018-10-20T01:20:58.194Z,8.90
2018-10-20T01:23:26.422Z,8.90
2018-10-20T01:25:54.651Z,8.80
2018-10-20T01:28:22.871Z,8.80
2018-10-20T01:30:51.094Z,8.80
2018-10-20T01:33:19.318Z,8.80
2018-10-20T01:35:47.552Z,8.70
2018-10-20T01:38:15.779Z,8.60
2018-10-20T01:40:44.015Z,8.70
2018-10-20T01:43:12.269Z,8.60
2018-10-20T01:45:40.492Z,8.50
2018-10-20T01:48:08.699Z,8.40
2018-10-20T01:50:36.904Z,8.40
2018-10-20T01:53:05.099Z,8.40
2018-10-20T01:55:33.314Z,8.30
2018-10-20T01:58:01.736Z,8.30
2018-10-20T02:00:29.911Z,8.30
2018-10-20T02:02:58.118Z,8.40
2018-10-20T02:05:26.335Z,8.40
2018-10-20T02:07:54.533Z,8.60
2018-10-20T02:10:22.735Z,8.80
2018-10-20T02:12:50.931Z,8.80
2018-10-20T02:15:19.139Z,8.90
2018-10-20T02:17:47.330Z,8.90
2018-10-20T02:20:15.552Z,8.90
2018-10-20T02:22:43.758Z,8.70
2018-10-20T02:25:12.037Z,8.70
2018-10-20T02:27:40.188Z,8.70
2018-10-20T02:30:08.410Z,8.80
2018-10-20T02:32:36.613Z,8.80
2018-10-20T02:35:04.905Z,8.70
2018-10-20T02:37:33.099Z,8.70
2018-10-20T02:40:01.375Z,8.60
2018-10-20T02:42:29.551Z,8.60
2018-10-20T02:44:57.780Z,8.50
2018-10-20T02:47:26.003Z,8.70
2018-10-20T02:49:54.212Z,8.90
2018-10-20T02:52:24.495Z,8.90
2018-10-20T02:54:52.764Z,8.80
2018-10-20T02:57:21.009Z,8.90
2018-10-20T02:59:49.200Z,8.80
2018-10-20T03:02:17.447Z,8.70
2018-10-20T03:04:45.721Z,8.60
2018-10-20T03:07:14.013Z,8.60
2018-10-20T03:09:42.215Z,8.50
2018-10-20T03:12:10.426Z,8.50
2018-10-20T03:14:38.628Z,8.50
2018-10-20T03:17:07.679Z,8.40
2018-10-20T03:19:36.768Z,8.30
2018-10-20T03:22:05.424Z,8.20
2018-10-20T03:24:33.624Z,8.10
2018-10-20T03:27:01.820Z,8.10
2018-10-20T03:29:30.378Z,8.10
2018-10-20T03:31:58.591Z,8.10
2018-10-20T03:34:26.807Z,8.10
2018-10-20T03:36:55.239Z,8.10
2018-10-20T03:39:23.691Z,8.00
2018-10-20T03:41:51.903Z,8.10
2018-10-20T03:44:20.106Z,8.30
2018-10-20T03:46:48.329Z,8.50
2018-10-20T03:49:16.582Z,8.40
2018-10-20T03:51:46.006Z,8.30
2018-10-20T03:54:15.401Z,8.20
2018-10-20T03:56:43.887Z,8.20
2018-10-20T03:59:23.375Z,8.30
2018-10-20T04:01:51.595Z,8.20
2018-10-20T04:04:19.866Z,8.20
2018-10-20T04:06:48.026Z,8.10
2018-10-20T04:09:16.227Z,8.00
2018-10-20T04:11:44.451Z,8.00
2018-10-20T04:14:12.661Z,8.00
2018-10-20T04:16:40.874Z,8.00
2018-10-20T04:19:09.136Z,7.90
2018-10-20T04:21:37.295Z,7.80
2018-10-20T04:24:05.705Z,7.80
2018-10-20T04:26:33.914Z,7.90
2018-10-20T04:29:02.118Z,7.90
2018-10-20T04:31:30.416Z,7.80
2018-10-20T04:33:58.603Z,7.80
2018-10-20T04:36:26.777Z,7.80
2018-10-20T04:38:54.974Z,7.70
2018-10-20T04:41:23.194Z,7.70
2018-10-20T04:43:51.390Z,7.70
2018-10-20T04:46:19.639Z,7.70
2018-10-20T04:48:47.852Z,7.90
2018-10-20T04:51:16.051Z,8.00
2018-10-20T04:53:44.272Z,8.10
2018-10-20T04:56:12.466Z,8.10
2018-10-20T04:58:40.675Z,8.10
2018-10-20T05:01:08.934Z,8.30
2018-10-20T05:03:37.142Z,8.30
2018-10-20T05:06:05.351Z,8.20
2018-10-20T05:08:33.571Z,8.20
2018-10-20T05:11:01.775Z,8.10
2018-10-20T05:13:41.340Z,8.20
2018-10-20T05:16:09.613Z,8.30
2018-10-20T05:18:37.828Z,8.20
2018-10-20T05:21:06.040Z,8.30
2018-10-20T05:23:34.258Z,8.30
2018-10-20T05:26:02.455Z,8.30
2018-10-20T05:28:30.674Z,8.20
2018-10-20T05:30:58.887Z,8.10
2018-10-20T05:33:27.103Z,8.00
2018-10-20T05:35:55.306Z,8.10
2018-10-20T05:38:23.519Z,8.00
2018-10-20T05:40:51.727Z,7.90
2018-10-20T05:43:19.939Z,7.80
2018-10-20T05:45:48.159Z,7.80
2018-10-20T05:48:16.375Z,7.90
2018-10-20T05:50:44.580Z,7.80
2018-10-20T05:53:12.824Z,7.70
2018-10-20T05:55:41.055Z,7.90
2018-10-20T05:58:09.315Z,7.90
2018-10-20T06:00:37.518Z,7.90
2018-10-20T06:03:05.822Z,7.90
2018-10-20T06:05:34.018Z,7.80
2018-10-20T06:08:02.220Z,7.80
2018-10-20T06:10:30.516Z,7.90
2018-10-20T06:12:58.656Z,7.90
2018-10-20T06:15:26.848Z,7.90
2018-10-20T06:17:55.055Z,7.80
2018-10-20T06:20:34.739Z,7.90
2018-10-20T06:23:02.951Z,8.10
2018-10-20T06:25:31.140Z,7.90
2018-10-20T06:27:59.347Z,7.80
2018-10-20T06:30:27.539Z,7.80
2018-10-20T06:32:55.763Z,7.70
2018-10-20T06:35:24.055Z,7.70
2018-10-20T06:37:52.298Z,7.90
2018-10-20T06:40:20.517Z,7.80
2018-10-20T06:42:48.731Z,7.90
2018-10-20T06:45:16.927Z,7.90
2018-10-20T06:47:45.255Z,8.00
2018-10-20T06:50:13.402Z,8.00
2018-10-20T06:52:41.695Z,8.10
2018-10-20T06:55:09.973Z,8.10
2018-10-20T06:57:38.180Z,8.10
2018-10-20T07:00:07.242Z,8.10
2018-10-20T07:02:35.659Z,8.20
2018-10-20T07:05:04.428Z,8.10
2018-10-20T07:07:32.662Z,8.10
2018-10-20T07:10:00.920Z,8.10
2018-10-20T07:12:29.152Z,8.10
2018-10-20T07:14:57.485Z,8.20
2018-10-20T07:17:25.653Z,8.30
2018-10-20T07:19:53.927Z,8.30
2018-10-20T07:22:22.185Z,8.40
2018-10-20T07:24:50.456Z,8.40
2018-10-20T07:27:18.703Z,8.50
2018-10-20T07:29:46.928Z,8.60
2018-10-20T07:32:15.146Z,8.70
2018-10-20T07:34:43.375Z,8.80
2018-10-20T07:37:11.645Z,9.00
2018-10-20T07:39:39.839Z,9.20
2018-10-20T07:42:08.056Z,9.30
2018-10-20T07:44:36.297Z,9.50
2018-10-20T07:47:04.521Z,9.60
2018-10-20T07:49:32.752Z,9.50
2018-10-20T07:52:05.221Z,9.40
2018-10-20T07:54:33.435Z,9.30
2018-10-20T07:57:01.653Z,9.30
2018-10-20T07:59:29.867Z,9.30
2018-10-20T08:01:58.121Z,9.40
2018-10-20T08:04:26.445Z,9.50
2018-10-20T08:06:54.657Z,9.50
2018-10-20T08:09:22.849Z,9.50
2018-10-20T08:11:51.027Z,9.50
2018-10-20T08:14:19.249Z,9.50
2018-10-20T08:16:47.451Z,9.60
2018-10-20T08:19:15.662Z,9.60
2018-10-20T08:21:43.934Z,9.70
2018-10-20T08:24:12.222Z,9.70
2018-10-20T08:26:40.422Z,9.70
2018-10-20T08:29:08.638Z,9.60
2018-10-20T08:31:36.834Z,9.80
2018-10-20T08:34:05.364Z,9.90
2018-10-20T08:36:33.575Z,9.90
2018-10-20T08:39:01.879Z,9.90
2018-10-20T08:41:30.044Z,9.90
2018-10-20T08:43:58.270Z,9.80
2018-10-20T08:46:26.474Z,9.90
2018-10-20T08:48:54.729Z,10.00
2018-10-20T08:51:22.973Z,10.00
2018-10-20T08:53:51.245Z,10.20
2018-10-20T08:56:19.502Z,10.30
2018-10-20T08:58:47.751Z,10.40
2018-10-20T09:01:16.008Z,10.60
2018-10-20T09:03:44.252Z,10.70
2018-10-20T09:06:12.546Z,10.80
2018-10-20T09:08:40.740Z,10.80
2018-10-20T09:11:09.072Z,10.80
2018-10-20T09:13:37.327Z,11.00
2018-10-20T09:16:05.606Z,11.20
2018-10-20T09:18:33.871Z,11.40
2018-10-20T09:21:02.228Z,11.60
2018-10-20T09:23:30.367Z,11.70
2018-10-20T09:25:58.620Z,11.80
2018-10-20T09:28:26.874Z,11.90
2018-10-20T09:30:55.123Z,12.00
2018-10-20T09:33:23.342Z,12.20
2018-10-20T09:35:51.579Z,12.20
2018-10-20T09:38:19.800Z,12.30
2018-10-20T09:40:48.039Z,12.40
2018-10-20T09:43:16.258Z,12.50
2018-10-20T09:45:44.494Z,12.50
2018-10-20T09:48:12.817Z,12.60
2018-10-20T09:50:43.213Z,12.60
2018-10-20T09:53:12.672Z,12.70
2018-10-20T09:55:40.899Z,12.60
2018-10-20T09:58:13.082Z,12.70
2018-10-20T10:00:47.565Z,12.60
2018-10-20T10:03:15.884Z,12.70
2018-10-20T10:05:44.097Z,12.70
2018-10-20T10:08:12.832Z,12.70
2018-10-20T10:10:41.019Z,12.80
2018-10-20T10:13:09.307Z,12.90
2018-10-20T10:15:37.543Z,13.10
2018-10-20T10:18:05.821Z,13.30
2018-10-20T10:20:34.109Z,13.50
2018-10-20T10:23:02.328Z,13.70
2018-10-20T10:25:30.643Z,13.90
2018-10-20T10:27:58.795Z,14.20
2018-10-20T10:30:27.024Z,14.60
2018-10-20T10:32:55.254Z,14.90
2018-10-20T10:35:23.484Z,15.20
2018-10-20T10:38:00.194Z,15.40
2018-10-20T10:40:33.727Z,15.80
2018-10-20T10:43:19.454Z,16.10
2018-10-20T10:45:50.683Z,16.40
2018-10-20T10:48:23.918Z,16.60
2018-10-20T10:50:55.922Z,16.70
2018-10-20T10:53:28.355Z,16.80
2018-10-20T10:56:00.024Z,17.00
2018-10-20T10:58:32.231Z,17.30
2018-10-20T11:02:07.644Z,17.50
2018-10-20T11:04:44.070Z,17.40
2018-10-20T11:07:20.364Z,17.30
2018-10-20T11:09:53.959Z,17.20
2018-10-20T11:12:29.611Z,17.20
2018-10-20T11:15:04.447Z,17.20
2018-10-20T11:17:38.151Z,17.10
2018-10-20T11:20:29.540Z,17.00
2018-10-20T11:23:10.196Z,17.10
2018-10-20T11:25:46.203Z,17.40
2018-10-20T11:28:18.763Z,17.40
2018-10-20T11:30:53.157Z,17.70
2018-10-20T11:33:24.636Z,17.80
2018-10-20T11:35:57.315Z,17.90
2018-10-20T11:38:37.659Z,17.90
2018-10-20T11:42:15.421Z,17.80
2018-10-20T11:44:51.502Z,17.80
2018-10-20T11:47:23.972Z,17.90
2018-10-20T11:50:57.358Z,17.70
2018-10-20T11:53:25.584Z,17.50
2018-10-20T11:55:53.815Z,17.40
2018-10-20T11:58:22.040Z,17.30
2018-10-20T12:00:50.272Z,17.20
2018-10-20T12:03:18.491Z,17.10
2018-10-20T12:05:46.739Z,16.80
2018-10-20T12:08:14.978Z,16.60
2018-10-20T12:10:43.195Z,16.50
2018-10-20T12:13:11.433Z,16.40
2018-10-20T12:15:39.695Z,16.30
2018-10-20T12:18:07.958Z,16.30
2018-10-20T12:20:36.170Z,16.30
2018-10-20T12:23:04.511Z,16.30
2018-10-20T12:25:32.728Z,16.20
2018-10-20T12:28:01.120Z,16.20
2018-10-20T12:30:29.207Z,16.20
2018-10-20T12:32:57.423Z,16.20
2018-10-20T12:35:25.651Z,16.20
2018-10-20T12:37:53.923Z,16.30
2018-10-20T12:40:22.130Z,16.40
2018-10-20T12:42:50.383Z,16.40
2018-10-20T12:45:18.609Z,16.40
2018-10-20T12:47:46.891Z,16.40
2018-10-20T12:50:15.099Z,16.40
2018-10-20T12:52:46.552Z,16.30
2018-10-20T12:55:15.146Z,16.30
2018-10-20T12:57:43.351Z,16.30
2018-10-20T13:00:11.648Z,16.40
2018-10-20T13:02:39.825Z,16.40
2018-10-20T13:05:08.027Z,16.30
2018-10-20T13:07:36.279Z,16.20
2018-10-20T13:10:04.611Z,16.20
2018-10-20T13:12:33.231Z,16.10
2018-10-20T13:15:01.438Z,16.10
2018-10-20T13:17:29.782Z,16.10
2018-10-20T13:19:57.980Z,16.10
2018-10-20T13:22:26.205Z,16.00
2018-10-20T13:24:54.407Z,15.90
2018-10-20T13:27:22.616Z,15.90
2018-10-20T13:29:50.815Z,15.90
2018-10-20T13:32:19.027Z,15.80
2018-10-20T13:34:47.244Z,15.80
2018-10-20T13:37:15.443Z,15.80
2018-10-20T13:39:43.652Z,15.90
2018-10-20T13:42:11.964Z,15.90
2018-10-20T13:44:40.164Z,15.80
2018-10-20T13:47:08.411Z,15.80
2018-10-20T13:49:36.659Z,15.70
2018-10-20T13:52:05.149Z,15.60
2018-10-20T13:54:33.483Z,15.60
2018-10-20T13:57:01.723Z,15.60
2018-10-20T13:59:29.955Z,15.70
2018-10-20T14:01:58.198Z,15.70
2018-10-20T14:04:26.426Z,15.70
2018-10-20T14:06:54.667Z,15.70
2018-10-20T14:09:22.902Z,15.70
2018-10-20T14:11:51.144Z,15.60
2018-10-20T14:14:19.456Z,15.60
2018-10-20T14:16:47.670Z,15.60
2018-10-20T14:19:15.895Z,15.60
2018-10-20T14:21:44.131Z,15.70
2018-10-20T14:24:12.375Z,15.70
2018-10-20T14:26:40.607Z,15.60
2018-10-20T14:29:08.834Z,15.60
2018-10-20T14:31:37.070Z,15.60
2018-10-20T14:34:05.553Z,15.50
2018-10-20T14:36:33.807Z,15.50
2018-10-20T14:39:02.041Z,15.50
2018-10-20T14:41:30.259Z,15.50
2018-10-20T14:43:58.503Z,15.50
2018-10-20T14:46:26.815Z,15.50
2018-10-20T14:48:55.063Z,15.50
2018-10-20T14:51:23.276Z,15.40
2018-10-20T14:53:51.880Z,15.40
2018-10-20T14:56:20.098Z,15.30
2018-10-20T14:58:48.306Z,15.20
2018-10-20T15:01:16.577Z,15.30
2018-10-20T15:03:44.798Z,15.20
2018-10-20T15:06:13.073Z,15.20
2018-10-20T15:08:41.261Z,15.20
2018-10-20T15:11:09.523Z,15.20
2018-10-20T15:13:37.750Z,15.10
2018-10-20T15:16:05.974Z,15.10
2018-10-20T15:18:34.219Z,15.00
2018-10-20T15:21:02.935Z,15.00
2018-10-20T15:23:31.180Z,15.10
2018-10-20T15:25:59.554Z,15.00
2018-10-20T15:28:27.799Z,15.10
2018-10-20T15:30:56.027Z,15.00
2018-10-20T15:33:24.251Z,14.90
2018-10-20T15:35:52.497Z,14.90
2018-10-20T15:38:20.735Z,14.80
2018-10-20T15:40:48.956Z,14.70
2018-10-20T15:43:17.178Z,14.60
2018-10-20T15:45:45.405Z,14.60
2018-10-20T15:48:13.872Z,14.50
2018-10-20T15:50:41.975Z,14.40
2018-10-20T15:53:10.256Z,14.30
2018-10-20T15:55:38.499Z,14.40
2018-10-20T15:58:06.843Z,14.30
2018-10-20T16:00:35.093Z,14.20
2018-10-20T16:03:03.343Z,14.00
2018-10-20T16:05:31.813Z,13.90
2018-10-20T16:08:00.072Z,14.00
2018-10-20T16:10:28.309Z,13.90
2018-10-20T16:12:56.567Z,13.80
2018-10-20T16:15:24.815Z,13.70
2018-10-20T16:17:53.112Z,13.50
2018-10-20T16:20:21.350Z,13.40
2018-10-20T16:22:49.583Z,13.40
2018-10-20T16:25:17.828Z,13.20
2018-10-20T16:27:46.103Z,13.00
2018-10-20T16:30:14.431Z,13.00
2018-10-20T16:32:42.619Z,12.90
2018-10-20T16:35:10.862Z,12.80
2018-10-20T16:37:39.104Z,12.60
2018-10-20T16:40:07.552Z,12.60
2018-10-20T16:42:35.813Z,12.60
2018-10-20T16:45:04.155Z,12.50
2018-10-20T16:47:32.404Z,12.30
2018-10-20T16:50:00.615Z,12.20
2018-10-20T16:52:28.848Z,12.20
2018-10-20T16:54:57.059Z,12.10
2018-10-20T16:57:25.326Z,12.00
2018-10-20T16:59:53.564Z,12.00
2018-10-20T17:02:21.776Z,12.00
2018-10-20T17:04:50.007Z,12.10
2018-10-20T17:07:18.219Z,12.30
2018-10-20T17:09:46.462Z,12.30
2018-10-20T17:12:14.807Z,12.30
2018-10-20T17:14:42.981Z,12.30
2018-10-20T17:17:11.195Z,12.30
2018-10-20T17:19:39.485Z,12.40
2018-10-20T17:22:07.674Z,12.30
2018-10-20T17:24:35.923Z,12.20
2018-10-20T17:27:04.250Z,12.10
2018-10-20T17:29:32.383Z,12.10
2018-10-20T17:32:00.613Z,12.10
2018-10-20T17:34:28.902Z,12.10
2018-10-20T17:36:57.134Z,12.10
2018-10-20T17:39:25.355Z,12.00
2018-10-20T17:41:53.567Z,12.00
2018-10-20T17:44:21.881Z,12.00
2018-10-20T17:46:50.023Z,12.00
2018-10-20T17:49:18.323Z,12.00
2018-10-20T17:51:46.559Z,11.80
2018-10-20T17:54:14.810Z,11.80
2018-10-20T17:56:43.095Z,11.70
2018-10-20T17:59:11.423Z,11.60
2018-10-20T18:01:39.586Z,11.50
2018-10-20T18:04:08.066Z,11.50
2018-10-20T18:06:36.107Z,11.50
2018-10-20T18:09:06.410Z,11.50
2018-10-20T18:11:34.788Z,11.60
2018-10-20T18:14:03.275Z,11.60
2018-10-20T18:16:31.531Z,11.60
2018-10-20T18:18:59.764Z,11.40
2018-10-20T18:21:28.003Z,11.40
2018-10-20T18:26:30.844Z,11.20
2018-10-20T18:28:59.169Z,11.20
2018-10-20T18:31:27.394Z,11.20
2018-10-20T18:33:55.607Z,11.10
2018-10-20T18:36:23.830Z,11.10
2018-10-20T18:38:52.063Z,11.10
2018-10-20T18:41:20.402Z,11.20
2018-10-20T18:43:48.675Z,11.10
2018-10-20T18:46:16.903Z,10.90
2018-10-20T18:48:44.243Z,10.80
2018-10-20T18:51:12.462Z,10.80
2018-10-20T18:53:40.647Z,10.70
2018-10-20T18:56:08.883Z,10.60
2018-10-20T18:58:37.135Z,10.60
2018-10-20T19:01:05.475Z,10.50
2018-10-20T19:03:33.707Z,10.60
2018-10-20T19:06:01.954Z,10.50
2018-10-20T19:08:30.206Z,10.50
2018-10-20T19:10:58.438Z,10.50
2018-10-20T19:13:26.711Z,10.50
2018-10-20T19:15:54.931Z,10.60
2018-10-20T19:18:23.179Z,10.50
2018-10-20T19:20:51.405Z,10.40
2018-10-20T19:23:19.643Z,10.40
2018-10-20T19:25:47.887Z,10.40
2018-10-20T19:28:16.119Z,10.30
2018-10-20T19:30:44.355Z,10.40
2018-10-20T19:33:12.663Z,10.30
2018-10-20T19:35:40.879Z,10.20
2018-10-20T19:38:09.123Z,10.10
2018-10-20T19:40:37.363Z,10.00
2018-10-20T19:43:05.798Z,9.90
2018-10-20T19:45:34.027Z,10.00
2018-10-20T19:48:02.259Z,10.10
2018-10-20T19:50:30.499Z,10.20
2018-10-20T19:52:58.700Z,10.20
2018-10-20T19:55:26.968Z,10.20
2018-10-20T19:57:55.173Z,10.20
2018-10-20T20:00:23.427Z,10.20
2018-10-20T20:02:51.708Z,10.30
2018-10-20T20:05:19.918Z,10.20
2018-10-20T20:07:48.191Z,10.20
2018-10-20T20:10:16.435Z,10.10
2018-10-20T20:12:44.651Z,10.10
2018-10-20T20:15:12.919Z,10.10
2018-10-20T20:17:41.110Z,10.20
2018-10-20T20:20:10.147Z,10.20
2018-10-20T20:22:38.377Z,10.30
2018-10-20T20:25:06.635Z,10.30
2018-10-20T20:27:34.849Z,10.20
2018-10-20T20:30:03.073Z,10.30
2018-10-20T20:32:31.279Z,10.30
2018-10-20T20:34:59.499Z,10.30
2018-10-20T20:37:27.927Z,10.30
2018-10-20T20:39:56.166Z,10.30
2018-10-20T20:42:24.452Z,10.10
2018-10-20T20:44:52.655Z,10.10
2018-10-20T20:47:20.863Z,9.90
2018-10-20T20:49:49.095Z,9.80
2018-10-20T20:52:17.310Z,9.90
2018-10-20T20:54:45.551Z,9.90
2018-10-20T20:57:13.809Z,9.90
2018-10-20T20:59:42.031Z,10.00
2018-10-20T21:02:10.278Z,10.00
2018-10-20T21:04:38.512Z,9.90
2018-10-20T21:07:06.763Z,10.00
2018-10-20T21:09:35.178Z,9.80
2018-10-20T21:12:03.291Z,9.70
2018-10-20T21:14:31.530Z,9.70
2018-10-20T21:16:59.755Z,9.70
2018-10-20T21:19:28.046Z,9.60
2018-10-20T21:21:56.269Z,9.60
2018-10-20T21:24:24.497Z,9.60
2018-10-20T21:26:52.727Z,9.70
2018-10-20T21:29:26.547Z,9.70
2018-10-20T21:31:54.910Z,9.80
2018-10-20T21:34:23.155Z,9.80
2018-10-20T21:36:51.395Z,9.80
2018-10-20T21:39:19.731Z,9.80
2018-10-20T21:41:47.894Z,9.80
2018-10-20T21:44:16.159Z,9.70
2018-10-20T21:46:44.502Z,9.80
2018-10-20T21:49:13.039Z,9.60
2018-10-20T21:51:41.352Z,9.60
2018-10-20T21:54:09.591Z,9.50
2018-10-20T21:56:37.819Z,9.50
2018-10-20T21:59:06.166Z,9.60
2018-10-20T22:01:34.392Z,9.70
2018-10-20T22:04:02.632Z,9.60
2018-10-20T22:06:30.895Z,9.50
2018-10-20T22:08:59.145Z,9.50
2018-10-20T22:11:27.399Z,9.60
2018-10-20T22:13:55.638Z,9.50
2018-10-20T22:16:23.883Z,9.50
2018-10-20T22:18:52.483Z,9.30
2018-10-20T22:21:20.779Z,9.20
2018-10-20T22:23:49.027Z,9.30
2018-10-20T22:26:17.258Z,9.10
2018-10-20T22:28:45.511Z,9.00
2018-10-20T22:31:13.850Z,8.90
2018-10-20T22:33:42.079Z,9.00
2018-10-20T22:36:10.338Z,9.10
2018-10-20T22:38:38.590Z,9.20
2018-10-20T22:41:06.847Z,9.30
2018-10-20T22:43:35.087Z,9.20
2018-10-20T22:46:03.348Z,9.20
2018-10-20T22:48:31.707Z,9.30
2018-10-20T22:50:59.958Z,9.30
2018-10-20T22:53:28.223Z,9.20
2018-10-20T22:55:56.455Z,9.00
2018-10-20T22:58:24.691Z,8.90
2018-10-20T23:00:52.919Z,8.80
2018-10-20T23:03:21.152Z,8.70
2018-10-20T23:05:49.399Z,8.70
2018-10-20T23:08:17.632Z,8.60
2018-10-20T23:10:45.871Z,8.60
2018-10-20T23:13:14.075Z,8.50
2018-10-20T23:15:42.316Z,8.50
2018-10-20T23:18:10.614Z,8.50
2018-10-20T23:20:38.848Z,8.40
2018-10-20T23:23:07.054Z,8.40
2018-10-20T23:25:35.282Z,8.40
2018-10-20T23:28:03.478Z,8.30
2018-10-20T23:30:31.691Z,8.20
2018-10-20T23:32:59.949Z,8.20
2018-10-20T23:35:28.139Z,8.20
2018-10-20T23:37:56.468Z,8.20
2018-10-20T23:40:24.739Z,8.30
2018-10-20T23:42:52.956Z,8.20
2018-10-20T23:45:21.192Z,8.20
2018-10-20T23:47:49.425Z,8.10
2018-10-20T23:50:17.696Z,8.00
2018-10-20T23:52:45.930Z,8.00
2018-10-20T23:55:14.254Z,7.90
2018-10-20T23:57:42.495Z,7.80
